sensor_id;sensor_type;location;lat;lon;timestamp;P1;durP1;ratioP1;P2;durP2;ratioP2
15406;SDS011;7802;51.568;6.364;2022-07-01T00:02:37;23.40;;;19.87;;
15406;SDS011;7802;51.568;6.364;2022-07-01T00:05:06;24.15;;;21.23;;
15406;SDS011;7802;51.568;6.364;2022-07-01T00:07:43;25.83;;;21.98;;
15406;SDS011;7802;51.568;6.364;2022-07-01T00:10:13;26.23;;;21.30;;
15406;SDS011;7802;51.568;6.364;2022-07-01T00:12:41;26.60;;;22.83;;
15406;SDS011;7802;51.568;6.364;2022-07-01T00:15:09;24.63;;;21.57;;
15406;SDS011;7802;51.568;6.364;2022-07-01T00:17:37;25.25;;;22.35;;
15406;SDS011;7802;51.568;6.364;2022-07-01T00:20:07;26.10;;;23.27;;
15406;SDS011;7802;51.568;6.364;2022-07-01T00:22:36;26.33;;;23.40;;
15406;SDS011;7802;51.568;6.364;2022-07-01T00:25:04;23.87;;;21.27;;
15406;SDS011;7802;51.568;6.364;2022-07-01T00:27:37;24.07;;;21.40;;
15406;SDS011;7802;51.568;6.364;2022-07-01T00:30:06;26.70;;;23.67;;
15406;SDS011;7802;51.568;6.364;2022-07-01T00:32:35;26.30;;;23.10;;
15406;SDS011;7802;51.568;6.364;2022-07-01T00:35:03;26.15;;;23.45;;
15406;SDS011;7802;51.568;6.364;2022-07-01T00:37:32;23.98;;;21.40;;
15406;SDS011;7802;51.568;6.364;2022-07-01T00:40:00;24.13;;;21.53;;
15406;SDS011;7802;51.568;6.364;2022-07-01T00:42:28;23.70;;;21.20;;
15406;SDS011;7802;51.568;6.364;2022-07-01T00:44:57;22.63;;;20.27;;
15406;SDS011;7802;51.568;6.364;2022-07-01T00:47:25;22.13;;;19.77;;
15406;SDS011;7802;51.568;6.364;2022-07-01T00:49:54;19.70;;;17.60;;
15406;SDS011;7802;51.568;6.364;2022-07-01T00:52:22;20.13;;;18.10;;
15406;SDS011;7802;51.568;6.364;2022-07-01T00:54:55;18.63;;;16.73;;
15406;SDS011;7802;51.568;6.364;2022-07-01T00:57:28;18.97;;;16.97;;
15406;SDS011;7802;51.568;6.364;2022-07-01T01:00:00;17.47;;;15.77;;
15406;SDS011;7802;51.568;6.364;2022-07-01T01:02:28;16.83;;;14.83;;
15406;SDS011;7802;51.568;6.364;2022-07-01T01:04:57;16.43;;;14.73;;
15406;SDS011;7802;51.568;6.364;2022-07-01T01:07:25;15.57;;;14.07;;
15406;SDS011;7802;51.568;6.364;2022-07-01T01:09:54;15.07;;;13.53;;
15406;SDS011;7802;51.568;6.364;2022-07-01T01:12:23;14.87;;;12.93;;
15406;SDS011;7802;51.568;6.364;2022-07-01T01:14:52;15.07;;;12.93;;
15406;SDS011;7802;51.568;6.364;2022-07-01T01:17:22;14.00;;;12.60;;
15406;SDS011;7802;51.568;6.364;2022-07-01T01:19:51;14.50;;;12.97;;
15406;SDS011;7802;51.568;6.364;2022-07-01T01:22:21;13.32;;;12.02;;
15406;SDS011;7802;51.568;6.364;2022-07-01T01:24:49;14.67;;;12.77;;
15406;SDS011;7802;51.568;6.364;2022-07-01T01:27:17;14.37;;;12.90;;
15406;SDS011;7802;51.568;6.364;2022-07-01T01:29:45;14.30;;;12.70;;
15406;SDS011;7802;51.568;6.364;2022-07-01T01:32:13;15.43;;;13.57;;
15406;SDS011;7802;51.568;6.364;2022-07-01T01:34:41;15.00;;;13.40;;
15406;SDS011;7802;51.568;6.364;2022-07-01T01:37:09;15.73;;;13.07;;
15406;SDS011;7802;51.568;6.364;2022-07-01T01:39:39;16.00;;;12.83;;
15406;SDS011;7802;51.568;6.364;2022-07-01T01:42:07;15.30;;;13.70;;
15406;SDS011;7802;51.568;6.364;2022-07-01T01:44:35;17.23;;;12.47;;
15406;SDS011;7802;51.568;6.364;2022-07-01T01:47:04;16.83;;;13.00;;
15406;SDS011;7802;51.568;6.364;2022-07-01T01:49:32;15.27;;;13.70;;
15406;SDS011;7802;51.568;6.364;2022-07-01T01:52:00;13.67;;;11.03;;
15406;SDS011;7802;51.568;6.364;2022-07-01T01:54:29;13.90;;;12.37;;
15406;SDS011;7802;51.568;6.364;2022-07-01T01:56:58;14.53;;;13.03;;
15406;SDS011;7802;51.568;6.364;2022-07-01T01:59:26;14.40;;;12.63;;
15406;SDS011;7802;51.568;6.364;2022-07-01T02:01:54;13.27;;;11.97;;
15406;SDS011;7802;51.568;6.364;2022-07-01T02:04:22;13.20;;;11.80;;
15406;SDS011;7802;51.568;6.364;2022-07-01T02:06:51;13.80;;;12.45;;
15406;SDS011;7802;51.568;6.364;2022-07-01T02:09:19;14.27;;;12.40;;
15406;SDS011;7802;51.568;6.364;2022-07-01T02:11:47;16.20;;;14.10;;
15406;SDS011;7802;51.568;6.364;2022-07-01T02:14:16;15.70;;;14.07;;
15406;SDS011;7802;51.568;6.364;2022-07-01T02:16:44;15.50;;;13.87;;
15406;SDS011;7802;51.568;6.364;2022-07-01T02:19:12;16.97;;;15.03;;
15406;SDS011;7802;51.568;6.364;2022-07-01T02:21:40;16.30;;;13.73;;
15406;SDS011;7802;51.568;6.364;2022-07-01T02:24:09;19.70;;;15.10;;
15406;SDS011;7802;51.568;6.364;2022-07-01T02:26:37;18.27;;;14.73;;
15406;SDS011;7802;51.568;6.364;2022-07-01T02:29:05;18.90;;;14.43;;
15406;SDS011;7802;51.568;6.364;2022-07-01T02:31:35;19.77;;;14.93;;
15406;SDS011;7802;51.568;6.364;2022-07-01T02:34:03;18.87;;;14.97;;
15406;SDS011;7802;51.568;6.364;2022-07-01T02:36:31;21.47;;;15.03;;
15406;SDS011;7802;51.568;6.364;2022-07-01T02:38:59;18.90;;;15.30;;
15406;SDS011;7802;51.568;6.364;2022-07-01T02:41:27;19.33;;;14.60;;
15406;SDS011;7802;51.568;6.364;2022-07-01T02:43:55;15.97;;;14.00;;
15406;SDS011;7802;51.568;6.364;2022-07-01T02:46:23;16.20;;;14.23;;
15406;SDS011;7802;51.568;6.364;2022-07-01T02:48:53;17.00;;;14.60;;
15406;SDS011;7802;51.568;6.364;2022-07-01T02:51:21;17.90;;;13.57;;
15406;SDS011;7802;51.568;6.364;2022-07-01T02:53:49;17.67;;;14.37;;
15406;SDS011;7802;51.568;6.364;2022-07-01T02:56:17;20.07;;;15.83;;
15406;SDS011;7802;51.568;6.364;2022-07-01T02:58:45;16.80;;;14.67;;
15406;SDS011;7802;51.568;6.364;2022-07-01T03:01:13;16.60;;;14.50;;
15406;SDS011;7802;51.568;6.364;2022-07-01T03:03:41;18.97;;;14.77;;
15406;SDS011;7802;51.568;6.364;2022-07-01T03:06:10;21.30;;;15.77;;
15406;SDS011;7802;51.568;6.364;2022-07-01T03:08:38;15.77;;;13.93;;
15406;SDS011;7802;51.568;6.364;2022-07-01T03:11:07;16.87;;;13.27;;
15406;SDS011;7802;51.568;6.364;2022-07-01T03:13:41;18.33;;;14.90;;
15406;SDS011;7802;51.568;6.364;2022-07-01T03:16:09;17.50;;;14.50;;
15406;SDS011;7802;51.568;6.364;2022-07-01T03:18:37;17.80;;;14.17;;
15406;SDS011;7802;51.568;6.364;2022-07-01T03:21:05;16.73;;;14.57;;
15406;SDS011;7802;51.568;6.364;2022-07-01T03:23:34;19.50;;;14.53;;
15406;SDS011;7802;51.568;6.364;2022-07-01T03:26:02;20.27;;;14.70;;
15406;SDS011;7802;51.568;6.364;2022-07-01T03:28:30;17.87;;;14.50;;
15406;SDS011;7802;51.568;6.364;2022-07-01T03:31:00;18.97;;;13.93;;
15406;SDS011;7802;51.568;6.364;2022-07-01T03:33:28;19.03;;;14.00;;
15406;SDS011;7802;51.568;6.364;2022-07-01T03:35:58;16.40;;;14.10;;
15406;SDS011;7802;51.568;6.364;2022-07-01T03:38:26;15.70;;;13.13;;
15406;SDS011;7802;51.568;6.364;2022-07-01T03:40:57;17.45;;;13.65;;
15406;SDS011;7802;51.568;6.364;2022-07-01T03:43:25;16.83;;;12.75;;
15406;SDS011;7802;51.568;6.364;2022-07-01T03:45:53;17.15;;;13.57;;
15406;SDS011;7802;51.568;6.364;2022-07-01T03:48:21;16.13;;;13.65;;
15406;SDS011;7802;51.568;6.364;2022-07-01T03:50:49;17.13;;;12.77;;
15406;SDS011;7802;51.568;6.364;2022-07-01T03:53:17;16.07;;;12.87;;
15406;SDS011;7802;51.568;6.364;2022-07-01T03:56:04;15.50;;;12.15;;
15406;SDS011;7802;51.568;6.364;2022-07-01T03:58:32;12.63;;;11.23;;
15406;SDS011;7802;51.568;6.364;2022-07-01T04:01:00;13.90;;;12.07;;
15406;SDS011;7802;51.568;6.364;2022-07-01T04:03:28;14.07;;;12.50;;
15406;SDS011;7802;51.568;6.364;2022-07-01T04:05:57;18.40;;;12.90;;
15406;SDS011;7802;51.568;6.364;2022-07-01T04:08:25;13.93;;;12.40;;
15406;SDS011;7802;51.568;6.364;2022-07-01T04:10:53;13.07;;;11.47;;
15406;SDS011;7802;51.568;6.364;2022-07-01T04:13:24;15.57;;;12.40;;
15406;SDS011;7802;51.568;6.364;2022-07-01T04:15:57;15.50;;;11.98;;
15406;SDS011;7802;51.568;6.364;2022-07-01T04:18:27;14.90;;;12.98;;
15406;SDS011;7802;51.568;6.364;2022-07-01T04:20:56;13.48;;;12.07;;
15406;SDS011;7802;51.568;6.364;2022-07-01T04:23:42;12.93;;;10.43;;
15406;SDS011;7802;51.568;6.364;2022-07-01T04:26:11;12.63;;;11.00;;
15406;SDS011;7802;51.568;6.364;2022-07-01T04:29:00;15.73;;;10.60;;
15406;SDS011;7802;51.568;6.364;2022-07-01T04:31:28;14.83;;;10.87;;
15406;SDS011;7802;51.568;6.364;2022-07-01T04:33:57;11.20;;;9.37;;
15406;SDS011;7802;51.568;6.364;2022-07-01T04:36:25;10.90;;;9.67;;
15406;SDS011;7802;51.568;6.364;2022-07-01T04:38:54;13.70;;;10.53;;
15406;SDS011;7802;51.568;6.364;2022-07-01T04:41:22;11.53;;;10.33;;
15406;SDS011;7802;51.568;6.364;2022-07-01T04:44:09;10.47;;;8.87;;
15406;SDS011;7802;51.568;6.364;2022-07-01T04:46:37;11.33;;;10.07;;
15406;SDS011;7802;51.568;6.364;2022-07-01T04:49:05;12.77;;;9.52;;
15406;SDS011;7802;51.568;6.364;2022-07-01T04:51:34;10.70;;;9.60;;
15406;SDS011;7802;51.568;6.364;2022-07-01T04:54:02;11.30;;;10.13;;
15406;SDS011;7802;51.568;6.364;2022-07-01T04:56:32;14.37;;;10.97;;
15406;SDS011;7802;51.568;6.364;2022-07-01T04:59:05;12.80;;;10.40;;
15406;SDS011;7802;51.568;6.364;2022-07-01T05:01:35;12.77;;;10.30;;
15406;SDS011;7802;51.568;6.364;2022-07-01T05:04:03;13.65;;;10.43;;
15406;SDS011;7802;51.568;6.364;2022-07-01T05:06:32;13.60;;;10.37;;
15406;SDS011;7802;51.568;6.364;2022-07-01T05:09:01;10.90;;;9.73;;
15406;SDS011;7802;51.568;6.364;2022-07-01T05:11:29;11.30;;;9.82;;
15406;SDS011;7802;51.568;6.364;2022-07-01T05:13:57;13.80;;;9.57;;
15406;SDS011;7802;51.568;6.364;2022-07-01T05:16:25;11.88;;;10.00;;
15406;SDS011;7802;51.568;6.364;2022-07-01T05:18:55;11.77;;;9.37;;
15406;SDS011;7802;51.568;6.364;2022-07-01T05:21:45;11.23;;;10.03;;
15406;SDS011;7802;51.568;6.364;2022-07-01T05:24:28;10.80;;;9.07;;
15406;SDS011;7802;51.568;6.364;2022-07-01T05:26:57;12.80;;;9.27;;
15406;SDS011;7802;51.568;6.364;2022-07-01T05:29:26;12.38;;;10.13;;
15406;SDS011;7802;51.568;6.364;2022-07-01T05:31:55;14.90;;;10.20;;
15406;SDS011;7802;51.568;6.364;2022-07-01T05:34:24;11.20;;;10.05;;
15406;SDS011;7802;51.568;6.364;2022-07-01T05:36:52;11.40;;;9.27;;
15406;SDS011;7802;51.568;6.364;2022-07-01T05:39:20;12.33;;;9.80;;
15406;SDS011;7802;51.568;6.364;2022-07-01T05:41:48;12.87;;;10.70;;
15406;SDS011;7802;51.568;6.364;2022-07-01T05:44:16;15.10;;;10.33;;
15406;SDS011;7802;51.568;6.364;2022-07-01T05:46:44;10.35;;;9.27;;
15406;SDS011;7802;51.568;6.364;2022-07-01T05:49:12;13.35;;;10.35;;
15406;SDS011;7802;51.568;6.364;2022-07-01T05:51:45;14.18;;;10.13;;
15406;SDS011;7802;51.568;6.364;2022-07-01T05:54:13;12.32;;;10.35;;
15406;SDS011;7802;51.568;6.364;2022-07-01T05:56:41;14.05;;;9.93;;
15406;SDS011;7802;51.568;6.364;2022-07-01T05:59:09;13.88;;;9.80;;
15406;SDS011;7802;51.568;6.364;2022-07-01T06:01:38;9.98;;;8.82;;
15406;SDS011;7802;51.568;6.364;2022-07-01T06:04:06;10.43;;;9.32;;
15406;SDS011;7802;51.568;6.364;2022-07-01T06:06:34;9.95;;;8.10;;
15406;SDS011;7802;51.568;6.364;2022-07-01T06:09:03;11.02;;;8.48;;
15406;SDS011;7802;51.568;6.364;2022-07-01T06:11:31;11.18;;;8.80;;
15406;SDS011;7802;51.568;6.364;2022-07-01T06:13:59;8.18;;;7.45;;
15406;SDS011;7802;51.568;6.364;2022-07-01T06:16:28;11.43;;;8.02;;
15406;SDS011;7802;51.568;6.364;2022-07-01T06:18:57;8.85;;;7.97;;
15406;SDS011;7802;51.568;6.364;2022-07-01T06:21:25;8.75;;;7.85;;
15406;SDS011;7802;51.568;6.364;2022-07-01T06:23:54;9.73;;;8.75;;
15406;SDS011;7802;51.568;6.364;2022-07-01T06:26:23;9.25;;;8.35;;
15406;SDS011;7802;51.568;6.364;2022-07-01T06:28:51;9.63;;;8.48;;
15406;SDS011;7802;51.568;6.364;2022-07-01T06:31:19;12.07;;;8.68;;
15406;SDS011;7802;51.568;6.364;2022-07-01T06:33:50;11.80;;;8.48;;
15406;SDS011;7802;51.568;6.364;2022-07-01T06:36:18;9.18;;;7.90;;
15406;SDS011;7802;51.568;6.364;2022-07-01T06:38:46;10.15;;;8.93;;
15406;SDS011;7802;51.568;6.364;2022-07-01T06:41:14;8.75;;;7.88;;
15406;SDS011;7802;51.568;6.364;2022-07-01T06:43:56;9.13;;;8.02;;
15406;SDS011;7802;51.568;6.364;2022-07-01T06:46:25;10.30;;;7.70;;
15406;SDS011;7802;51.568;6.364;2022-07-01T06:48:54;9.30;;;8.20;;
15406;SDS011;7802;51.568;6.364;2022-07-01T06:51:24;9.27;;;8.25;;
15406;SDS011;7802;51.568;6.364;2022-07-01T06:53:53;8.70;;;7.72;;
15406;SDS011;7802;51.568;6.364;2022-07-01T06:56:21;9.88;;;7.22;;
15406;SDS011;7802;51.568;6.364;2022-07-01T06:58:49;9.80;;;8.15;;
15406;SDS011;7802;51.568;6.364;2022-07-01T07:01:18;8.35;;;7.20;;
15406;SDS011;7802;51.568;6.364;2022-07-01T07:03:46;10.25;;;7.93;;
15406;SDS011;7802;51.568;6.364;2022-07-01T07:06:14;8.57;;;7.63;;
15406;SDS011;7802;51.568;6.364;2022-07-01T07:08:42;7.80;;;6.88;;
15406;SDS011;7802;51.568;6.364;2022-07-01T07:11:11;8.82;;;7.22;;
15406;SDS011;7802;51.568;6.364;2022-07-01T07:13:41;7.10;;;6.40;;
15406;SDS011;7802;51.568;6.364;2022-07-01T07:16:10;7.60;;;6.13;;
15406;SDS011;7802;51.568;6.364;2022-07-01T07:18:39;6.25;;;5.60;;
15406;SDS011;7802;51.568;6.364;2022-07-01T07:21:07;7.75;;;6.45;;
15406;SDS011;7802;51.568;6.364;2022-07-01T07:23:35;7.20;;;5.63;;
15406;SDS011;7802;51.568;6.364;2022-07-01T07:26:03;6.80;;;5.45;;
15406;SDS011;7802;51.568;6.364;2022-07-01T07:28:31;6.57;;;5.07;;
15406;SDS011;7802;51.568;6.364;2022-07-01T07:30:59;7.53;;;5.05;;
15406;SDS011;7802;51.568;6.364;2022-07-01T07:33:28;7.75;;;5.38;;
15406;SDS011;7802;51.568;6.364;2022-07-01T07:35:57;7.18;;;5.60;;
15406;SDS011;7802;51.568;6.364;2022-07-01T07:38:25;5.90;;;5.18;;
15406;SDS011;7802;51.568;6.364;2022-07-01T07:40:53;5.47;;;4.88;;
15406;SDS011;7802;51.568;6.364;2022-07-01T07:43:21;5.03;;;4.53;;
15406;SDS011;7802;51.568;6.364;2022-07-01T07:45:49;5.53;;;4.05;;
15406;SDS011;7802;51.568;6.364;2022-07-01T07:48:18;4.28;;;3.90;;
15406;SDS011;7802;51.568;6.364;2022-07-01T07:50:46;4.50;;;3.95;;
15406;SDS011;7802;51.568;6.364;2022-07-01T07:53:16;4.60;;;4.20;;
15406;SDS011;7802;51.568;6.364;2022-07-01T07:55:44;5.25;;;4.57;;
15406;SDS011;7802;51.568;6.364;2022-07-01T07:58:12;6.07;;;4.47;;
15406;SDS011;7802;51.568;6.364;2022-07-01T08:00:40;4.35;;;3.92;;
15406;SDS011;7802;51.568;6.364;2022-07-01T08:03:08;4.60;;;3.97;;
15406;SDS011;7802;51.568;6.364;2022-07-01T08:05:36;5.65;;;4.13;;
15406;SDS011;7802;51.568;6.364;2022-07-01T08:08:04;5.55;;;4.22;;
15406;SDS011;7802;51.568;6.364;2022-07-01T08:10:34;5.38;;;4.03;;
15406;SDS011;7802;51.568;6.364;2022-07-01T08:13:02;5.72;;;3.95;;
15406;SDS011;7802;51.568;6.364;2022-07-01T08:15:32;5.88;;;3.47;;
15406;SDS011;7802;51.568;6.364;2022-07-01T08:18:01;4.65;;;4.03;;
15406;SDS011;7802;51.568;6.364;2022-07-01T08:20:29;6.43;;;3.92;;
15406;SDS011;7802;51.568;6.364;2022-07-01T08:22:57;5.00;;;3.33;;
15406;SDS011;7802;51.568;6.364;2022-07-01T08:25:25;3.72;;;3.35;;
15406;SDS011;7802;51.568;6.364;2022-07-01T08:28:02;5.00;;;3.17;;
15406;SDS011;7802;51.568;6.364;2022-07-01T08:30:31;4.82;;;3.38;;
15406;SDS011;7802;51.568;6.364;2022-07-01T08:32:59;3.50;;;3.17;;
15406;SDS011;7802;51.568;6.364;2022-07-01T08:35:28;3.00;;;2.80;;
15406;SDS011;7802;51.568;6.364;2022-07-01T08:37:56;2.83;;;2.58;;
15406;SDS011;7802;51.568;6.364;2022-07-01T08:40:25;2.30;;;2.10;;
15406;SDS011;7802;51.568;6.364;2022-07-01T08:42:57;5.13;;;2.85;;
15406;SDS011;7802;51.568;6.364;2022-07-01T08:45:27;4.47;;;2.50;;
15406;SDS011;7802;51.568;6.364;2022-07-01T08:47:57;3.53;;;2.80;;
15406;SDS011;7802;51.568;6.364;2022-07-01T08:50:28;4.32;;;2.40;;
15406;SDS011;7802;51.568;6.364;2022-07-01T08:52:57;2.38;;;2.03;;
15406;SDS011;7802;51.568;6.364;2022-07-01T08:55:26;3.38;;;2.70;;
15406;SDS011;7802;51.568;6.364;2022-07-01T08:57:54;4.07;;;2.30;;
15406;SDS011;7802;51.568;6.364;2022-07-01T09:00:30;2.35;;;2.15;;
15406;SDS011;7802;51.568;6.364;2022-07-01T09:02:59;3.40;;;2.17;;
15406;SDS011;7802;51.568;6.364;2022-07-01T09:05:29;4.35;;;2.50;;
15406;SDS011;7802;51.568;6.364;2022-07-01T09:07:58;5.43;;;2.60;;
15406;SDS011;7802;51.568;6.364;2022-07-01T09:10:27;4.45;;;2.13;;
15406;SDS011;7802;51.568;6.364;2022-07-01T09:12:59;4.13;;;2.10;;
15406;SDS011;7802;51.568;6.364;2022-07-01T09:15:33;1.92;;;1.80;;
15406;SDS011;7802;51.568;6.364;2022-07-01T09:18:03;2.60;;;2.05;;
15406;SDS011;7802;51.568;6.364;2022-07-01T09:20:33;2.47;;;1.92;;
15406;SDS011;7802;51.568;6.364;2022-07-01T09:23:03;4.68;;;2.20;;
15406;SDS011;7802;51.568;6.364;2022-07-01T09:25:34;2.75;;;1.80;;
15406;SDS011;7802;51.568;6.364;2022-07-01T09:28:15;2.90;;;2.00;;
15406;SDS011;7802;51.568;6.364;2022-07-01T09:30:46;3.25;;;1.77;;
15406;SDS011;7802;51.568;6.364;2022-07-01T09:33:16;4.85;;;1.75;;
15406;SDS011;7802;51.568;6.364;2022-07-01T09:35:46;4.68;;;1.75;;
15406;SDS011;7802;51.568;6.364;2022-07-01T09:38:15;4.45;;;2.08;;
15406;SDS011;7802;51.568;6.364;2022-07-01T09:40:59;3.28;;;1.85;;
15406;SDS011;7802;51.568;6.364;2022-07-01T09:43:29;3.95;;;2.13;;
15406;SDS011;7802;51.568;6.364;2022-07-01T09:46:00;4.03;;;2.08;;
15406;SDS011;7802;51.568;6.364;2022-07-01T09:48:41;3.13;;;2.08;;
15406;SDS011;7802;51.568;6.364;2022-07-01T09:51:12;2.03;;;1.60;;
15406;SDS011;7802;51.568;6.364;2022-07-01T09:53:42;2.95;;;1.73;;
15406;SDS011;7802;51.568;6.364;2022-07-01T09:56:10;2.08;;;1.88;;
15406;SDS011;7802;51.568;6.364;2022-07-01T09:58:38;2.42;;;1.80;;
15406;SDS011;7802;51.568;6.364;2022-07-01T10:01:10;3.33;;;1.77;;
15406;SDS011;7802;51.568;6.364;2022-07-01T10:03:40;3.20;;;1.52;;
15406;SDS011;7802;51.568;6.364;2022-07-01T10:06:19;3.13;;;1.60;;
15406;SDS011;7802;51.568;6.364;2022-07-01T10:09:01;2.00;;;1.42;;
15406;SDS011;7802;51.568;6.364;2022-07-01T10:14:42;2.65;;;1.55;;
15406;SDS011;7802;51.568;6.364;2022-07-01T10:17:20;3.03;;;1.52;;
15406;SDS011;7802;51.568;6.364;2022-07-01T10:19:54;4.20;;;1.90;;
15406;SDS011;7802;51.568;6.364;2022-07-01T10:22:26;1.55;;;1.40;;
15406;SDS011;7802;51.568;6.364;2022-07-01T10:24:56;3.05;;;1.83;;
15406;SDS011;7802;51.568;6.364;2022-07-01T10:27:44;1.67;;;1.40;;
15406;SDS011;7802;51.568;6.364;2022-07-01T10:30:13;2.45;;;1.58;;
15406;SDS011;7802;51.568;6.364;2022-07-01T10:32:44;2.40;;;1.38;;
15406;SDS011;7802;51.568;6.364;2022-07-01T10:35:35;3.97;;;1.58;;
15406;SDS011;7802;51.568;6.364;2022-07-01T10:38:04;3.50;;;1.50;;
15406;SDS011;7802;51.568;6.364;2022-07-01T10:40:44;4.63;;;1.25;;
15406;SDS011;7802;51.568;6.364;2022-07-01T10:43:15;1.75;;;1.25;;
15406;SDS011;7802;51.568;6.364;2022-07-01T10:45:54;2.78;;;1.55;;
15406;SDS011;7802;51.568;6.364;2022-07-01T10:48:24;1.77;;;1.67;;
15406;SDS011;7802;51.568;6.364;2022-07-01T10:50:52;1.88;;;1.27;;
15406;SDS011;7802;51.568;6.364;2022-07-01T10:53:21;1.30;;;1.20;;
15406;SDS011;7802;51.568;6.364;2022-07-01T10:55:50;1.50;;;1.13;;
15406;SDS011;7802;51.568;6.364;2022-07-01T11:01:09;1.13;;;0.98;;
15406;SDS011;7802;51.568;6.364;2022-07-01T11:03:39;1.38;;;1.27;;
15406;SDS011;7802;51.568;6.364;2022-07-01T11:06:09;1.85;;;1.50;;
15406;SDS011;7802;51.568;6.364;2022-07-01T11:08:37;2.15;;;1.20;;
15406;SDS011;7802;51.568;6.364;2022-07-01T11:11:05;1.63;;;1.08;;
15406;SDS011;7802;51.568;6.364;2022-07-01T11:13:34;2.92;;;1.15;;
15406;SDS011;7802;51.568;6.364;2022-07-01T11:16:03;1.25;;;1.13;;
15406;SDS011;7802;51.568;6.364;2022-07-01T11:18:32;1.40;;;1.30;;
15406;SDS011;7802;51.568;6.364;2022-07-01T11:21:05;2.70;;;1.38;;
15406;SDS011;7802;51.568;6.364;2022-07-01T11:23:36;2.78;;;1.63;;
15406;SDS011;7802;51.568;6.364;2022-07-01T11:26:07;2.15;;;1.10;;
15406;SDS011;7802;51.568;6.364;2022-07-01T11:28:48;1.38;;;1.02;;
15406;SDS011;7802;51.568;6.364;2022-07-01T11:31:26;1.15;;;0.93;;
15406;SDS011;7802;51.568;6.364;2022-07-01T11:33:57;2.17;;;1.00;;
15406;SDS011;7802;51.568;6.364;2022-07-01T11:36:27;1.30;;;1.15;;
15406;SDS011;7802;51.568;6.364;2022-07-01T11:39:12;2.63;;;1.00;;
15406;SDS011;7802;51.568;6.364;2022-07-01T11:41:54;2.00;;;1.10;;
15406;SDS011;7802;51.568;6.364;2022-07-01T11:44:27;1.05;;;0.90;;
15406;SDS011;7802;51.568;6.364;2022-07-01T11:46:56;1.25;;;1.00;;
15406;SDS011;7802;51.568;6.364;2022-07-01T11:49:24;3.13;;;1.17;;
15406;SDS011;7802;51.568;6.364;2022-07-01T11:51:57;1.63;;;0.95;;
15406;SDS011;7802;51.568;6.364;2022-07-01T11:54:27;1.40;;;1.05;;
15406;SDS011;7802;51.568;6.364;2022-07-01T11:57:06;4.80;;;1.35;;
15406;SDS011;7802;51.568;6.364;2022-07-01T11:59:35;2.40;;;1.10;;
15406;SDS011;7802;51.568;6.364;2022-07-01T12:02:05;0.90;;;0.88;;
15406;SDS011;7802;51.568;6.364;2022-07-01T12:04:35;1.83;;;0.85;;
15406;SDS011;7802;51.568;6.364;2022-07-01T12:07:04;1.10;;;1.00;;
15406;SDS011;7802;51.568;6.364;2022-07-01T12:09:33;1.80;;;1.10;;
15406;SDS011;7802;51.568;6.364;2022-07-01T12:12:03;1.83;;;1.10;;
15406;SDS011;7802;51.568;6.364;2022-07-01T12:14:33;1.45;;;0.90;;
15406;SDS011;7802;51.568;6.364;2022-07-01T12:17:03;1.35;;;1.08;;
15406;SDS011;7802;51.568;6.364;2022-07-01T12:19:37;1.58;;;1.00;;
15406;SDS011;7802;51.568;6.364;2022-07-01T12:22:09;1.13;;;1.02;;
15406;SDS011;7802;51.568;6.364;2022-07-01T12:24:39;2.97;;;1.00;;
15406;SDS011;7802;51.568;6.364;2022-07-01T12:27:08;2.20;;;0.90;;
15406;SDS011;7802;51.568;6.364;2022-07-01T12:29:50;2.22;;;1.15;;
15406;SDS011;7802;51.568;6.364;2022-07-01T12:32:21;1.00;;;0.93;;
15406;SDS011;7802;51.568;6.364;2022-07-01T12:34:52;2.75;;;1.10;;
15406;SDS011;7802;51.568;6.364;2022-07-01T12:37:28;1.10;;;1.00;;
15406;SDS011;7802;51.568;6.364;2022-07-01T12:39:59;1.42;;;0.80;;
15406;SDS011;7802;51.568;6.364;2022-07-01T12:42:30;1.05;;;0.93;;
15406;SDS011;7802;51.568;6.364;2022-07-01T12:45:00;1.05;;;0.95;;
15406;SDS011;7802;51.568;6.364;2022-07-01T12:47:32;2.80;;;1.10;;
15406;SDS011;7802;51.568;6.364;2022-07-01T12:50:09;1.75;;;1.05;;
15406;SDS011;7802;51.568;6.364;2022-07-01T12:52:42;2.33;;;1.00;;
15406;SDS011;7802;51.568;6.364;2022-07-01T12:55:16;2.20;;;1.00;;
15406;SDS011;7802;51.568;6.364;2022-07-01T12:57:46;1.65;;;1.08;;
15406;SDS011;7802;51.568;6.364;2022-07-01T13:00:15;3.05;;;1.02;;
15406;SDS011;7802;51.568;6.364;2022-07-01T13:02:44;2.35;;;0.93;;
15406;SDS011;7802;51.568;6.364;2022-07-01T13:05:13;2.38;;;1.00;;
15406;SDS011;7802;51.568;6.364;2022-07-01T13:07:42;1.42;;;0.90;;
15406;SDS011;7802;51.568;6.364;2022-07-01T13:10:12;1.73;;;0.88;;
15406;SDS011;7802;51.568;6.364;2022-07-01T13:12:41;1.85;;;1.00;;
15406;SDS011;7802;51.568;6.364;2022-07-01T13:15:10;1.13;;;1.00;;
15406;SDS011;7802;51.568;6.364;2022-07-01T13:17:39;1.15;;;0.80;;
15406;SDS011;7802;51.568;6.364;2022-07-01T13:20:07;1.17;;;1.00;;
15406;SDS011;7802;51.568;6.364;2022-07-01T13:22:36;1.25;;;1.00;;
15406;SDS011;7802;51.568;6.364;2022-07-01T13:25:06;1.40;;;1.02;;
15406;SDS011;7802;51.568;6.364;2022-07-01T13:27:35;1.05;;;0.95;;
15406;SDS011;7802;51.568;6.364;2022-07-01T13:30:04;2.97;;;1.10;;
15406;SDS011;7802;51.568;6.364;2022-07-01T13:32:34;2.20;;;1.00;;
15406;SDS011;7802;51.568;6.364;2022-07-01T13:35:03;3.08;;;1.52;;
15406;SDS011;7802;51.568;6.364;2022-07-01T13:37:32;1.33;;;0.95;;
15406;SDS011;7802;51.568;6.364;2022-07-01T13:40:00;3.10;;;0.90;;
15406;SDS011;7802;51.568;6.364;2022-07-01T13:42:30;3.13;;;1.40;;
15406;SDS011;7802;51.568;6.364;2022-07-01T13:44:58;1.13;;;1.00;;
15406;SDS011;7802;51.568;6.364;2022-07-01T13:47:26;1.45;;;1.13;;
15406;SDS011;7802;51.568;6.364;2022-07-01T13:49:55;2.10;;;1.15;;
15406;SDS011;7802;51.568;6.364;2022-07-01T13:52:23;2.10;;;1.05;;
15406;SDS011;7802;51.568;6.364;2022-07-01T13:54:54;2.60;;;1.33;;
15406;SDS011;7802;51.568;6.364;2022-07-01T13:57:22;3.15;;;1.30;;
15406;SDS011;7802;51.568;6.364;2022-07-01T13:59:52;3.03;;;1.13;;
15406;SDS011;7802;51.568;6.364;2022-07-01T14:02:21;1.58;;;1.10;;
15406;SDS011;7802;51.568;6.364;2022-07-01T14:04:49;2.47;;;1.25;;
15406;SDS011;7802;51.568;6.364;2022-07-01T14:07:17;3.72;;;1.00;;
15406;SDS011;7802;51.568;6.364;2022-07-01T14:09:45;1.60;;;1.00;;
15406;SDS011;7802;51.568;6.364;2022-07-01T14:12:14;2.35;;;1.15;;
15406;SDS011;7802;51.568;6.364;2022-07-01T14:14:54;3.95;;;1.40;;
15406;SDS011;7802;51.568;6.364;2022-07-01T14:17:23;2.28;;;1.23;;
15406;SDS011;7802;51.568;6.364;2022-07-01T14:19:51;4.50;;;1.40;;
15406;SDS011;7802;51.568;6.364;2022-07-01T14:22:19;2.33;;;1.00;;
15406;SDS011;7802;51.568;6.364;2022-07-01T14:24:47;2.50;;;1.10;;
15406;SDS011;7802;51.568;6.364;2022-07-01T14:27:15;2.55;;;1.17;;
15406;SDS011;7802;51.568;6.364;2022-07-01T14:29:44;1.25;;;0.90;;
15406;SDS011;7802;51.568;6.364;2022-07-01T14:32:13;1.45;;;0.90;;
15406;SDS011;7802;51.568;6.364;2022-07-01T14:34:41;3.17;;;1.20;;
15406;SDS011;7802;51.568;6.364;2022-07-01T14:37:09;3.70;;;0.93;;
15406;SDS011;7802;51.568;6.364;2022-07-01T14:39:37;2.03;;;1.20;;
15406;SDS011;7802;51.568;6.364;2022-07-01T14:42:05;1.15;;;0.80;;
15406;SDS011;7802;51.568;6.364;2022-07-01T14:44:33;2.58;;;1.15;;
15406;SDS011;7802;51.568;6.364;2022-07-01T14:47:02;4.50;;;1.55;;
15406;SDS011;7802;51.568;6.364;2022-07-01T14:49:32;1.30;;;1.20;;
15406;SDS011;7802;51.568;6.364;2022-07-01T14:52:02;1.70;;;1.33;;
15406;SDS011;7802;51.568;6.364;2022-07-01T14:54:30;2.60;;;1.10;;
15406;SDS011;7802;51.568;6.364;2022-07-01T14:56:58;1.70;;;1.38;;
15406;SDS011;7802;51.568;6.364;2022-07-01T14:59:26;1.75;;;1.38;;
15406;SDS011;7802;51.568;6.364;2022-07-01T15:01:54;1.58;;;1.30;;
15406;SDS011;7802;51.568;6.364;2022-07-01T15:04:26;1.33;;;1.00;;
15406;SDS011;7802;51.568;6.364;2022-07-01T15:06:56;1.77;;;1.23;;
15406;SDS011;7802;51.568;6.364;2022-07-01T15:09:24;2.83;;;1.45;;
15406;SDS011;7802;51.568;6.364;2022-07-01T15:11:52;1.50;;;1.40;;
15406;SDS011;7802;51.568;6.364;2022-07-01T15:14:21;3.47;;;1.63;;